Time;durP1;ratioP1;P1;durP2;ratioP2;P2;SDS_P1;SDS_P2;PMS_P1;PMS_P2;Temp;Humidity;BMP_temperature;BMP_pressure;BME280_temperature;BME280_humidity;BME280_pressure;Samples;Min_cycle;Max_cycle;Signal;HPM_P1;HPM_P2
2023/03/03 00:01:33;;;;;;;41.15;23.33;;;4.40;99.90;;;;;;5014481;28;20422;-77
2023/03/03 00:03:59;;;;;;;44.50;23.05;;;4.50;99.90;;;;;;4996906;28;20053;-77
2023/03/03 00:06:25;;;;;;;38.72;21.95;;;4.40;99.90;;;;;;5014123;28;20142;-77
2023/03/03 00:08:51;;;;;;;38.17;21.02;;;4.30;99.90;;;;;;5013099;28;20034;-77
2023/03/03 00:11:17;;;;;;;35.40;20.60;;;4.20;99.90;;;;;;5012292;28;20387;-77
2023/03/03 00:13:46;;;;;;;37.90;21.42;;;4.30;99.90;;;;;;4996464;28;20041;-79
2023/03/03 00:16:22;;;;;;;36.72;21.05;;;4.40;99.90;;;;;;5014041;28;20096;-78
2023/03/03 00:18:48;;;;;;;38.63;20.88;;;4.10;99.90;;;;;;5019898;28;20064;-78
2023/03/03 00:21:41;;;;;;;39.22;22.52;;;4.10;99.90;;;;;;5033704;28;20033;-78
2023/03/03 00:24:13;;;;;;;40.20;21.83;;;4.00;99.90;;;;;;5010734;28;20121;-79
2023/03/03 00:26:40;;;;;;;39.90;21.95;;;4.00;99.90;;;;;;5033696;28;20029;-78
2023/03/03 00:29:44;;;;;;;40.58;22.40;;;4.00;99.90;;;;;;5033290;28;20386;-78
2023/03/03 00:32:21;;;;;;;41.30;22.50;;;3.90;99.90;;;;;;5012497;28;20049;-78
2023/03/03 00:34:47;;;;;;;39.58;23.58;;;3.80;99.90;;;;;;5032730;28;20029;-78
2023/03/03 00:37:28;;;;;;;46.67;24.58;;;4.00;99.90;;;;;;5033668;28;20029;-78
2023/03/03 00:40:08;;;;;;;43.13;23.65;;;4.10;99.90;;;;;;5015540;28;20118;-79
2023/03/03 00:42:35;;;;;;;45.83;23.73;;;4.10;99.90;;;;;;5033002;28;20128;-78
2023/03/03 00:45:00;;;;;;;43.28;24.00;;;4.20;99.90;;;;;;5015952;28;20477;-78
2023/03/03 00:47:29;;;;;;;35.80;20.70;;;4.00;99.90;;;;;;4983322;28;20124;-78
2023/03/03 00:50:06;;;;;;;34.72;19.58;;;4.00;99.90;;;;;;5033601;28;20351;-78
2023/03/03 00:52:43;;;;;;;36.17;19.65;;;3.90;99.90;;;;;;5033411;28;20092;-78
2023/03/03 00:55:10;;;;;;;36.70;20.17;;;4.00;99.90;;;;;;5033356;28;20109;-78
2023/03/03 00:57:35;;;;;;;32.95;18.70;;;3.80;99.90;;;;;;4999513;28;20418;-78
2023/03/03 01:00:01;;;;;;;35.65;19.48;;;3.60;99.90;;;;;;5033598;28;20030;-78
2023/03/03 01:02:27;;;;;;;35.25;18.77;;;3.50;99.90;;;;;;5033326;28;20033;-79
2023/03/03 01:04:55;;;;;;;33.63;18.67;;;3.50;99.90;;;;;;4999590;28;20543;-78
2023/03/03 01:07:21;;;;;;;37.10;19.85;;;3.60;99.90;;;;;;5033218;28;20083;-78
2023/03/03 01:09:47;;;;;;;38.08;20.75;;;3.60;99.90;;;;;;5033111;28;20033;-78
2023/03/03 01:12:14;;;;;;;33.47;19.48;;;3.30;99.90;;;;;;5015110;28;20033;-79
2023/03/03 01:14:40;;;;;;;38.25;20.33;;;3.10;99.90;;;;;;5033070;28;20038;-78
2023/03/03 01:17:06;;;;;;;36.15;19.77;;;3.10;99.90;;;;;;5015641;28;20037;-78
2023/03/03 01:19:32;;;;;;;36.63;19.23;;;3.10;99.90;;;;;;5015054;28;20103;-79
2023/03/03 01:21:57;;;;;;;33.30;18.33;;;3.30;99.90;;;;;;5015535;28;20042;-78
2023/03/03 01:24:23;;;;;;;32.63;18.40;;;3.40;99.90;;;;;;4999379;28;20029;-78
2023/03/03 01:26:49;;;;;;;29.27;16.73;;;3.50;99.90;;;;;;5015407;28;20026;-78
2023/03/03 01:29:15;;;;;;;31.95;18.35;;;3.60;99.90;;;;;;5015331;28;20030;-79
2023/03/03 01:31:40;;;;;;;34.60;18.50;;;3.70;99.90;;;;;;5015481;28;20117;-78
2023/03/03 01:34:06;;;;;;;33.58;18.17;;;3.80;99.90;;;;;;5015238;28;20045;-78
2023/03/03 01:36:32;;;;;;;35.45;18.30;;;3.80;99.90;;;;;;5015666;28;20025;-78
2023/03/03 01:38:58;;;;;;;31.92;17.95;;;3.80;99.90;;;;;;5032588;28;20067;-78
2023/03/03 01:41:29;;;;;;;32.13;18.15;;;3.80;99.90;;;;;;4998501;28;20038;-78
2023/03/03 01:43:55;;;;;;;32.47;18.27;;;3.80;99.90;;;;;;5015299;28;20032;-78
2023/03/03 01:46:32;;;;;;;32.10;18.30;;;3.80;99.90;;;;;;5002253;28;20033;-78
2023/03/03 01:49:05;;;;;;;31.92;19.05;;;3.70;99.90;;;;;;5018975;28;20021;-78
2023/03/03 01:52:01;;;;;;;34.30;18.65;;;3.70;99.90;;;;;;5036598;28;20036;-78
2023/03/03 01:54:38;;;;;;;28.80;15.80;;;3.60;99.90;;;;;;5018814;28;20029;-78
2023/03/03 01:57:10;;;;;;;33.72;18.13;;;3.60;99.90;;;;;;5018446;28;20030;-78
2023/03/03 01:59:40;;;;;;;34.45;18.52;;;3.70;99.90;;;;;;5036196;28;20026;-78
2023/03/03 02:02:07;;;;;;;36.03;20.77;;;3.80;99.90;;;;;;5018636;28;20033;-78
2023/03/03 02:04:34;;;;;;;32.03;18.88;;;4.00;99.90;;;;;;5018583;28;20029;-79
2023/03/03 02:07:06;;;;;;;33.55;19.67;;;3.90;99.90;;;;;;5018978;28;20029;-78
2023/03/03 02:09:35;;;;;;;37.22;20.83;;;4.00;99.90;;;;;;5036196;28;20459;-79
2023/03/03 02:12:07;;;;;;;34.55;19.33;;;4.00;99.90;;;;;;5035324;28;20068;-78
2023/03/03 02:14:33;;;;;;;32.92;19.58;;;3.80;99.90;;;;;;5018574;28;20030;-78
2023/03/03 02:16:59;;;;;;;38.42;20.85;;;3.90;99.90;;;;;;5035933;28;20030;-78
2023/03/03 02:19:53;;;;;;;36.53;20.60;;;3.90;99.90;;;;;;5017956;28;20041;-78
2023/03/03 02:22:27;;;;;;;38.67;21.83;;;3.90;99.90;;;;;;5013891;28;20037;-78
2023/03/03 02:24:59;;;;;;;37.35;21.10;;;4.00;99.90;;;;;;5035991;28;20087;-78
2023/03/03 02:27:27;;;;;;;37.15;20.92;;;3.90;99.90;;;;;;5018101;28;20079;-78
2023/03/03 02:29:53;;;;;;;35.83;20.75;;;4.00;99.90;;;;;;5035672;28;20577;-78
2023/03/03 02:32:19;;;;;;;36.47;19.83;;;3.90;99.90;;;;;;5035618;28;20050;-78
2023/03/03 02:34:50;;;;;;;35.03;19.48;;;3.90;99.90;;;;;;5017997;28;20037;-79
2023/03/03 02:37:17;;;;;;;36.20;20.13;;;3.90;99.90;;;;;;5035686;28;20047;-78
2023/03/03 02:39:43;;;;;;;33.97;19.10;;;3.90;99.90;;;;;;5035386;28;20064;-78
2023/03/03 02:42:19;;;;;;;33.58;18.98;;;3.90;99.90;;;;;;5017759;28;20033;-78
2023/03/03 02:44:46;;;;;;;35.78;19.13;;;3.90;99.90;;;;;;5035697;28;20053;-77
2023/03/03 02:47:12;;;;;;;34.67;19.38;;;3.80;99.90;;;;;;5017292;28;20497;-78
2023/03/03 02:49:38;;;;;;;33.53;19.10;;;3.60;99.90;;;;;;5035794;28;20022;-78
2023/03/03 02:52:08;;;;;;;33.60;17.90;;;3.50;99.90;;;;;;5018155;28;20037;-78
2023/03/03 02:54:35;;;;;;;30.90;17.25;;;3.70;99.90;;;;;;5017365;28;20029;-78
2023/03/03 02:57:01;;;;;;;31.45;16.75;;;3.80;99.90;;;;;;5017414;28;20047;-78
2023/03/03 02:59:27;;;;;;;32.20;16.63;;;4.00;99.90;;;;;;5035639;28;20091;-78
2023/03/03 03:01:54;;;;;;;32.03;16.55;;;4.10;99.90;;;;;;5035157;28;20037;-78
2023/03/03 03:04:26;;;;;;;29.13;16.38;;;4.20;99.90;;;;;;5035238;28;20044;-78
2023/03/03 03:06:53;;;;;;;29.17;15.93;;;4.10;99.90;;;;;;5035277;28;20060;-78
2023/03/03 03:09:20;;;;;;;30.75;16.85;;;4.10;99.90;;;;;;5034955;28;20466;-78
2023/03/03 03:11:46;;;;;;;30.67;17.80;;;4.10;99.90;;;;;;5016771;28;20040;-78
2023/03/03 03:14:13;;;;;;;32.25;17.50;;;4.00;99.90;;;;;;5017278;28;20029;-78
2023/03/03 03:16:38;;;;;;;33.53;18.42;;;4.00;99.90;;;;;;5017098;28;20068;-78
2023/03/03 03:19:05;;;;;;;35.88;18.60;;;3.90;99.90;;;;;;5034750;28;20057;-78
2023/03/03 03:21:31;;;;;;;36.20;18.80;;;4.10;99.90;;;;;;5034540;28;20430;-78
2023/03/03 03:23:57;;;;;;;31.90;18.35;;;4.20;99.90;;;;;;5016997;28;20046;-78
2023/03/03 03:26:23;;;;;;;34.45;18.77;;;4.30;99.90;;;;;;5033872;28;20032;-78
2023/03/03 03:28:50;;;;;;;32.47;18.88;;;4.30;99.90;;;;;;5034518;28;20034;-78
2023/03/03 03:31:17;;;;;;;31.17;17.50;;;4.30;99.90;;;;;;5016294;28;20065;-78
2023/03/03 03:33:42;;;;;;;33.85;18.67;;;4.30;99.90;;;;;;5016540;28;20128;-78
2023/03/03 03:36:08;;;;;;;37.60;19.33;;;4.40;99.90;;;;;;5034510;28;20112;-78
2023/03/03 03:38:36;;;;;;;37.17;19.52;;;4.60;99.90;;;;;;5034277;28;20120;-78
2023/03/03 03:41:02;;;;;;;34.63;20.08;;;4.70;99.90;;;;;;5033701;28;20064;-78
2023/03/03 03:43:28;;;;;;;36.38;19.83;;;4.60;99.90;;;;;;5034135;28;20026;-78
2023/03/03 03:45:54;;;;;;;37.85;20.27;;;4.40;99.90;;;;;;5033882;28;20030;-78
2023/03/03 03:48:19;;;;;;;36.20;20.73;;;4.40;99.90;;;;;;5033834;28;20053;-78
2023/03/03 03:50:49;;;;;;;35.83;19.33;;;4.30;99.90;;;;;;5016196;28;20148;-78
2023/03/03 03:53:16;;;;;;;33.47;18.67;;;4.30;99.90;;;;;;5016256;28;20037;-78
2023/03/03 03:55:41;;;;;;;42.60;21.48;;;4.50;99.90;;;;;;5033687;28;20022;-78
2023/03/03 03:58:07;;;;;;;43.97;21.00;;;4.50;99.90;;;;;;4999774;28;20032;-78
2023/03/03 04:00:33;;;;;;;37.95;20.30;;;4.40;99.90;;;;;;4999929;28;20363;-78
2023/03/03 04:02:59;;;;;;;40.28;20.67;;;4.40;99.90;;;;;;5033680;28;20032;-78
2023/03/03 04:05:24;;;;;;;39.38;21.30;;;4.50;99.90;;;;;;4999719;28;20041;-78
2023/03/03 04:07:50;;;;;;;42.53;21.42;;;4.50;99.90;;;;;;5015310;28;20036;-78
2023/03/03 04:10:17;;;;;;;43.42;21.00;;;4.50;99.90;;;;;;5015975;28;20057;-78
2023/03/03 04:12:42;;;;;;;36.58;20.15;;;4.40;99.90;;;;;;5015494;28;20069;-78
2023/03/03 04:15:11;;;;;;;43.25;21.95;;;4.30;99.90;;;;;;4999571;28;20390;-78
2023/03/03 04:17:37;;;;;;;42.70;20.98;;;4.40;99.90;;;;;;5033618;28;20025;-79
2023/03/03 04:20:05;;;;;;;41.08;21.52;;;4.60;99.90;;;;;;5033622;28;20081;-78
2023/03/03 04:22:34;;;;;;;46.28;22.38;;;4.70;99.90;;;;;;5015769;28;20037;-76
2023/03/03 04:25:04;;;;;;;42.33;22.17;;;4.50;99.90;;;;;;5033010;28;20127;-78
2023/03/03 04:27:37;;;;;;;44.50;22.73;;;4.50;99.90;;;;;;5000138;28;20048;-78
2023/03/03 04:30:05;;;;;;;48.20;22.58;;;4.30;99.90;;;;;;5015753;28;20537;-78
2023/03/03 04:32:32;;;;;;;44.85;21.58;;;4.20;99.90;;;;;;5015274;28;20398;-78
2023/03/03 04:34:58;;;;;;;42.47;21.00;;;4.10;99.90;;;;;;5015863;28;20390;-78
2023/03/03 04:37:24;;;;;;;39.10;19.95;;;4.10;99.90;;;;;;5032922;28;20040;-77
2023/03/03 04:39:50;;;;;;;42.35;20.52;;;4.30;99.90;;;;;;5033370;28;20111;-77
2023/03/03 04:42:15;;;;;;;43.05;20.95;;;4.10;99.90;;;;;;5032337;28;20089;-77
2023/03/03 04:44:41;;;;;;;43.28;21.08;;;4.00;99.90;;;;;;5032396;28;20474;-77
2023/03/03 04:47:06;;;;;;;43.83;20.48;;;3.90;99.90;;;;;;4998665;28;20030;-77
2023/03/03 04:49:32;;;;;;;44.13;22.23;;;4.00;99.90;;;;;;5014977;28;20071;-77
2023/03/03 04:51:58;;;;;;;44.45;21.83;;;3.90;99.90;;;;;;5033093;28;20059;-77
2023/03/03 04:54:23;;;;;;;48.83;22.30;;;3.70;99.90;;;;;;5015178;28;20029;-77
2023/03/03 04:56:49;;;;;;;47.13;22.17;;;3.50;99.90;;;;;;5033279;28;20108;-77
2023/03/03 04:59:15;;;;;;;49.78;22.45;;;3.40;99.90;;;;;;5015283;28;20025;-77
2023/03/03 05:01:40;;;;;;;45.78;21.30;;;3.50;99.90;;;;;;5015472;28;20041;-77
2023/03/03 05:04:06;;;;;;;45.38;21.60;;;3.60;99.90;;;;;;5033111;28;20025;-77
2023/03/03 05:06:32;;;;;;;44.10;21.13;;;3.60;99.90;;;;;;5033173;28;20037;-77
2023/03/03 05:08:58;;;;;;;48.78;22.83;;;3.70;99.90;;;;;;5033087;28;20569;-77
2023/03/03 05:11:24;;;;;;;46.85;22.27;;;3.90;99.90;;;;;;5014905;28;20477;-77
2023/03/03 05:13:49;;;;;;;44.65;22.48;;;4.00;99.90;;;;;;5032840;28;20045;-77
2023/03/03 05:16:15;;;;;;;45.08;22.00;;;4.10;99.90;;;;;;5032920;28;20359;-78
2023/03/03 05:18:41;;;;;;;40.72;20.30;;;4.30;99.90;;;;;;4984319;28;20120;-78
2023/03/03 05:21:06;;;;;;;44.53;21.13;;;4.40;99.90;;;;;;5016372;28;20045;-77
2023/03/03 05:23:32;;;;;;;46.13;23.88;;;4.60;99.90;;;;;;5036115;28;20513;-79
2023/03/03 05:25:58;;;;;;;45.45;22.30;;;4.60;99.90;;;;;;5036382;28;20037;-77
2023/03/03 05:28:24;;;;;;;47.63;23.60;;;4.60;99.90;;;;;;5017576;28;20367;-77
2023/03/03 05:30:49;;;;;;;43.67;21.65;;;4.40;99.90;;;;;;5001594;28;20037;-78
2023/03/03 05:33:16;;;;;;;41.88;21.42;;;4.30;99.90;;;;;;5018786;28;20040;-77
2023/03/03 05:35:42;;;;;;;41.83;20.70;;;4.20;99.90;;;;;;5036497;28;20104;-77
2023/03/03 05:38:08;;;;;;;41.28;18.35;;;4.20;99.90;;;;;;5018375;28;20029;-77
2023/03/03 05:40:34;;;;;;;38.13;19.63;;;4.40;99.90;;;;;;5035986;28;20446;-78
2023/03/03 05:43:00;;;;;;;33.65;16.98;;;4.40;99.90;;;;;;5035759;28;20032;-78
2023/03/03 05:45:26;;;;;;;38.30;18.35;;;4.30;99.90;;;;;;5001747;28;20034;-78
2023/03/03 05:47:52;;;;;;;36.47;18.05;;;4.10;99.90;;;;;;5034869;28;20033;-78
2023/03/03 05:50:19;;;;;;;35.67;18.50;;;4.10;99.90;;;;;;5035711;28;20040;-78
2023/03/03 05:52:48;;;;;;;32.08;15.73;;;4.00;99.90;;;;;;5036015;28;20528;-78
2023/03/03 05:55:14;;;;;;;34.33;16.83;;;4.00;99.90;;;;;;5035852;28;20527;-78
2023/03/03 05:57:39;;;;;;;32.72;16.63;;;4.10;99.90;;;;;;5018487;28;20044;-78
2023/03/03 06:00:07;;;;;;;30.42;16.08;;;4.10;99.90;;;;;;5035799;28;20049;-79
2023/03/03 06:02:33;;;;;;;30.50;15.23;;;3.90;99.90;;;;;;5001870;28;20493;-78
2023/03/03 06:04:59;;;;;;;31.30;16.13;;;3.90;99.90;;;;;;5034416;28;20030;-78
2023/03/03 06:07:25;;;;;;;35.42;17.60;;;3.90;99.90;;;;;;5017898;28;20044;-78
2023/03/03 06:09:50;;;;;;;33.63;16.92;;;3.60;99.90;;;;;;5017814;28;20076;-78
2023/03/03 06:12:16;;;;;;;35.67;17.95;;;3.50;99.90;;;;;;5017769;28;20110;-78
2023/03/03 06:14:42;;;;;;;37.30;18.13;;;3.40;99.90;;;;;;5001411;28;20040;-78
2023/03/03 06:17:07;;;;;;;30.38;14.90;;;3.40;99.90;;;;;;5018281;28;20036;-79
2023/03/03 06:19:33;;;;;;;35.90;17.55;;;3.60;99.90;;;;;;5001082;28;20054;-79
2023/03/03 06:21:59;;;;;;;34.75;18.30;;;3.80;99.90;;;;;;5001492;28;20042;-79
2023/03/03 06:24:29;;;;;;;39.80;18.17;;;3.80;99.90;;;;;;5017513;28;20397;-79
2023/03/03 06:26:55;;;;;;;36.97;16.27;;;3.90;99.90;;;;;;5001652;28;20037;-76
2023/03/03 06:29:21;;;;;;;29.38;15.05;;;4.00;99.90;;;;;;5034147;28;20033;-76
2023/03/03 06:31:46;;;;;;;31.48;16.85;;;4.20;99.90;;;;;;5000363;28;20474;-76
2023/03/03 06:34:12;;;;;;;28.98;15.20;;;4.40;99.90;;;;;;5017426;28;20488;-77
2023/03/03 06:36:38;;;;;;;29.73;15.50;;;4.30;99.90;;;;;;5034960;28;20056;-76
2023/03/03 06:39:03;;;;;;;30.05;15.63;;;4.40;99.90;;;;;;5017384;28;20044;-77
2023/03/03 06:41:29;;;;;;;33.00;15.93;;;4.50;99.90;;;;;;5016971;28;20040;-76
2023/03/03 06:43:55;;;;;;;35.67;16.88;;;4.60;99.90;;;;;;5035173;28;20058;-76
2023/03/03 06:46:21;;;;;;;29.30;15.98;;;4.70;99.90;;;;;;5035310;28;20473;-81
2023/03/03 06:48:47;;;;;;;33.63;16.60;;;4.80;99.90;;;;;;5017657;28;20026;-80
2023/03/03 06:51:25;;;;;;;33.70;16.92;;;4.80;99.90;;;;;;5000842;28;20041;-80
2023/03/03 06:53:54;;;;;;;35.88;16.48;;;5.00;99.90;;;;;;5033898;28;20034;-78
2023/03/03 06:56:21;;;;;;;32.70;17.08;;;4.80;99.90;;;;;;5033719;28;20484;-79
2023/03/03 06:58:47;;;;;;;28.38;14.55;;;4.80;99.90;;;;;;5016700;28;20477;-79
2023/03/03 07:01:16;;;;;;;27.45;14.60;;;4.90;99.90;;;;;;5035110;28;20072;-79
2023/03/03 07:03:42;;;;;;;25.85;13.40;;;5.00;99.90;;;;;;5034618;28;20025;-78
2023/03/03 07:06:20;;;;;;;27.35;13.23;;;5.00;99.90;;;;;;5034566;28;20501;-78
2023/03/03 07:08:45;;;;;;;24.95;13.93;;;5.10;99.90;;;;;;5016719;28;20021;-78
2023/03/03 07:11:17;;;;;;;25.92;12.88;;;5.20;99.90;;;;;;5016285;28;20129;-77
2023/03/03 07:14:01;;;;;;;24.55;12.32;;;5.20;99.90;;;;;;5034949;28;20029;-80
2023/03/03 07:16:27;;;;;;;24.52;11.90;;;5.30;99.90;;;;;;5017196;28;20104;-78
2023/03/03 07:18:57;;;;;;;20.05;11.05;;;5.20;99.90;;;;;;5016433;28;20124;-79
2023/03/03 07:21:33;;;;;;;21.67;10.57;;;5.10;99.90;;;;;;5016701;28;20071;-79
2023/03/03 07:24:07;;;;;;;21.58;10.65;;;4.90;99.90;;;;;;5034297;28;20028;-78
2023/03/03 07:26:33;;;;;;;22.60;10.43;;;4.70;99.90;;;;;;5017300;28;20049;-79
2023/03/03 07:29:25;;;;;;;16.63;9.75;;;4.60;99.90;;;;;;5000065;28;20060;-79
2023/03/03 07:31:52;;;;;;;16.33;8.77;;;4.60;99.90;;;;;;5034327;28;20064;-78
2023/03/03 07:34:28;;;;;;;15.20;8.35;;;4.60;99.90;;;;;;5016396;28;20068;-78
2023/03/03 07:36:58;;;;;;;17.90;8.20;;;4.70;99.90;;;;;;5034091;28;20030;-78
2023/03/03 07:39:24;;;;;;;15.15;8.52;;;4.60;99.90;;;;;;5033863;28;20404;-79
2023/03/03 07:41:50;;;;;;;15.60;7.45;;;4.60;99.90;;;;;;5034124;28;20033;-76
2023/03/03 07:44:31;;;;;;;14.90;7.70;;;4.50;99.90;;;;;;5016086;28;20394;-78
2023/03/03 07:46:57;;;;;;;15.38;7.43;;;4.50;99.90;;;;;;5034392;28;20028;-80
2023/03/03 07:49:30;;;;;;;16.85;8.30;;;4.40;99.90;;;;;;5016258;28;20029;-78
2023/03/03 07:51:56;;;;;;;14.57;7.60;;;4.30;99.90;;;;;;5033628;28;20077;-78
2023/03/03 07:54:30;;;;;;;17.20;8.35;;;4.20;99.90;;;;;;5025041;28;20045;-78
2023/03/03 07:57:25;;;;;;;15.85;7.95;;;4.30;99.90;;;;;;5033888;28;20034;-78
2023/03/03 07:59:58;;;;;;;14.75;7.55;;;4.50;99.90;;;;;;5007729;28;20037;-77
2023/03/03 08:02:27;;;;;;;;;;;4.60;99.90;;;;;;5033271;28;20144;-85
2023/03/03 08:04:53;;;;;;;16.20;7.80;;;4.60;99.90;;;;;;5019255;28;19905;-80
2023/03/03 08:07:21;;;;;;;15.38;6.93;;;4.70;99.90;;;;;;4999881;28;20147;-79
2023/03/03 08:09:59;;;;;;;14.75;8.05;;;4.80;99.90;;;;;;5033306;28;20086;-80
2023/03/03 08:12:36;;;;;;;16.00;7.53;;;5.00;99.90;;;;;;5015251;28;20120;-80
2023/03/03 08:15:24;;;;;;;18.20;7.85;;;4.90;99.90;;;;;;5033648;28;20108;-79
2023/03/03 08:17:51;;;;;;;17.70;7.80;;;4.70;99.90;;;;;;5033715;28;20091;-77
2023/03/03 08:20:43;;;;;;;17.90;7.38;;;4.80;99.90;;;;;;5015996;28;20053;-78
2023/03/03 08:23:10;;;;;;;15.52;7.72;;;4.90;99.90;;;;;;5034159;28;20033;-79
2023/03/03 08:25:35;;;;;;;15.10;7.75;;;5.00;99.90;;;;;;4999401;28;20331;-80
2023/03/03 08:28:01;;;;;;;15.13;8.02;;;5.10;99.90;;;;;;4991563;28;20022;-78
2023/03/03 08:30:27;;;;;;;15.52;7.68;;;5.20;99.90;;;;;;4996231;28;20026;-80
2023/03/03 08:32:52;;;;;;;16.58;7.35;;;4.90;99.90;;;;;;5013369;28;20046;-79
2023/03/03 08:35:18;;;;;;;15.45;7.32;;;4.80;99.90;;;;;;4996668;28;20103;-79
2023/03/03 08:37:44;;;;;;;15.70;6.50;;;4.80;99.90;;;;;;4980037;28;20026;-79
2023/03/03 08:40:10;;;;;;;12.85;6.88;;;4.80;99.90;;;;;;4979911;28;20030;-80
2023/03/03 08:42:36;;;;;;;11.85;6.88;;;4.70;99.90;;;;;;4979493;28;20030;-80
2023/03/03 08:45:02;;;;;;;11.98;6.95;;;4.70;99.90;;;;;;4979504;28;20073;-77
2023/03/03 08:47:27;;;;;;;15.40;7.45;;;4.50;99.90;;;;;;4995822;28;20049;-80
2023/03/03 08:49:53;;;;;;;14.23;6.75;;;4.50;99.90;;;;;;5013978;28;20026;-78
2023/03/03 08:52:19;;;;;;;10.20;5.40;;;4.60;99.90;;;;;;4995899;28;20407;-78
2023/03/03 08:54:44;;;;;;;13.80;6.38;;;4.60;99.90;;;;;;4979632;28;20044;-81
2023/03/03 08:57:10;;;;;;;12.73;6.68;;;4.80;99.90;;;;;;4995999;28;20038;-81
2023/03/03 08:59:37;;;;;;;16.35;7.72;;;5.10;99.90;;;;;;4995937;28;20032;-82
2023/03/03 09:02:04;;;;;;;13.23;6.85;;;5.10;99.90;;;;;;4996287;28;20030;-82
2023/03/03 09:04:30;;;;;;;14.75;7.40;;;5.00;99.90;;;;;;5028100;28;20033;-82
2023/03/03 09:06:56;;;;;;;16.48;7.53;;;5.00;99.90;;;;;;5032900;28;20034;-84
2023/03/03 09:09:22;;;;;;;14.98;6.80;;;5.00;99.90;;;;;;5015478;28;20029;-81
2023/03/03 09:11:48;;;;;;;11.13;5.25;;;5.10;99.90;;;;;;4998040;28;20025;-77
2023/03/03 09:14:16;;;;;;;10.93;6.60;;;5.20;99.90;;;;;;4997830;28;20030;-80
2023/03/03 09:16:51;;;;;;;13.52;6.72;;;5.30;99.90;;;;;;5031339;28;20057;-79
2023/03/03 09:19:32;;;;;;;11.80;6.97;;;5.50;99.90;;;;;;5014184;28;20048;-79
2023/03/03 09:22:20;;;;;;;12.40;6.60;;;5.50;99.90;;;;;;5031954;28;20060;-79
2023/03/03 09:24:48;;;;;;;12.80;7.35;;;5.50;99.90;;;;;;5009682;28;20028;-81
2023/03/03 09:27:33;;;;;;;12.45;6.15;;;5.50;99.90;;;;;;5031253;28;20113;-79
2023/03/03 09:30:25;;;;;;;11.27;6.18;;;5.50;99.90;;;;;;5014181;28;20470;-79
2023/03/03 09:32:50;;;;;;;13.52;5.97;;;5.70;99.90;;;;;;5022765;28;20124;-79
2023/03/03 09:35:37;;;;;;;9.52;5.07;;;5.90;99.90;;;;;;4998583;28;20125;-79
2023/03/03 09:38:27;;;;;;;8.88;4.63;;;6.00;99.90;;;;;;5012873;28;20029;-80
2023/03/03 09:41:10;;;;;;;12.50;5.20;;;6.10;99.90;;;;;;5014684;28;20045;-81
2023/03/03 09:43:51;;;;;;;9.85;5.65;;;6.10;99.90;;;;;;5018821;28;20030;-82
2023/03/03 09:46:56;;;;;;;9.55;5.45;;;6.10;99.90;;;;;;5031629;28;20052;-80
2023/03/03 09:49:35;;;;;;;14.02;5.85;;;6.00;99.90;;;;;;5013228;28;20037;-80
2023/03/03 09:52:42;;;;;;;8.80;4.80;;;6.00;99.90;;;;;;5031788;28;20108;-80
2023/03/03 09:55:14;;;;;;;7.82;5.00;;;5.90;99.90;;;;;;4933688;29;20440;-80
2023/03/03 09:58:13;;;;;;;7.70;4.50;;;6.00;99.90;;;;;;4935347;29;20058;-80
2023/03/03 10:00:54;;;;;;;12.13;4.65;;;6.10;99.90;;;;;;5010353;28;20104;-79
2023/03/03 10:03:58;;;;;;;9.00;4.40;;;6.20;99.90;;;;;;5009687;28;20038;-80
2023/03/03 10:06:30;;;;;;;10.18;4.60;;;6.20;99.90;;;;;;5007947;28;20025;-80
2023/03/03 10:09:18;;;;;;;9.60;4.57;;;6.40;99.90;;;;;;4998115;28;20030;-80
2023/03/03 10:12:04;;;;;;;8.40;4.25;;;6.60;99.90;;;;;;5015170;28;20056;-80
2023/03/03 10:14:40;;;;;;;6.38;3.42;;;7.00;99.90;;;;;;4998795;28;20180;-83
2023/03/03 10:17:30;;;;;;;6.30;3.20;;;7.10;99.90;;;;;;5015952;28;20074;-80
2023/03/03 10:20:04;;;;;;;5.70;3.15;;;7.50;99.90;;;;;;5015655;28;20053;-79
2023/03/03 10:22:56;;;;;;;9.38;3.72;;;7.60;99.90;;;;;;4997998;28;20030;-80
2023/03/03 10:25:34;;;;;;;8.37;3.83;;;7.70;99.70;;;;;;5026981;28;20030;-79
2023/03/03 10:28:17;;;;;;;6.25;3.45;;;7.90;99.40;;;;;;5035214;28;20025;-79
2023/03/03 10:31:09;;;;;;;9.10;3.67;;;7.90;99.00;;;;;;5034788;28;20104;-80
2023/03/03 10:34:03;;;;;;;7.82;4.05;;;8.10;98.00;;;;;;5017778;28;20040;-80
2023/03/03 10:37:02;;;;;;;6.70;3.60;;;8.20;97.60;;;;;;4989001;28;20095;-80
2023/03/03 10:39:44;;;;;;;6.05;3.35;;;8.40;97.50;;;;;;5013486;28;20462;-80
2023/03/03 10:42:22;;;;;;;8.80;3.33;;;8.60;97.20;;;;;;5030801;28;20029;-81
2023/03/03 10:45:17;;;;;;;7.97;3.60;;;8.90;96.90;;;;;;5016210;28;20028;-81
2023/03/03 10:48:07;;;;;;;9.90;3.97;;;9.20;96.80;;;;;;5030552;28;20029;-81
2023/03/03 10:50:58;;;;;;;9.30;3.70;;;9.50;95.90;;;;;;5015661;28;20021;-81
2023/03/03 10:53:30;;;;;;;8.77;4.18;;;9.70;94.70;;;;;;5033330;28;20041;-79
2023/03/03 10:56:09;;;;;;;7.00;3.70;;;9.80;94.40;;;;;;5015961;28;20025;-80
2023/03/03 10:58:55;;;;;;;5.45;3.70;;;9.80;93.70;;;;;;5015906;28;20031;-84
2023/03/03 11:02:05;;;;;;;7.90;3.10;;;9.70;93.60;;;;;;5033560;28;20041;-80
2023/03/03 11:05:05;;;;;;;6.43;3.22;;;9.70;93.40;;;;;;4942804;29;20090;-78
2023/03/03 11:07:39;;;;;;;5.00;2.83;;;9.70;92.10;;;;;;5016322;28;20033;-81
2023/03/03 11:10:34;;;;;;;4.95;2.63;;;9.50;92.10;;;;;;5016497;28;20026;-80
2023/03/03 11:13:24;;;;;;;6.53;3.33;;;9.40;92.70;;;;;;5016625;28;20362;-81
2023/03/03 11:16:02;;;;;;;4.10;2.50;;;9.50;92.90;;;;;;5013494;28;20026;-81
2023/03/03 11:18:43;;;;;;;8.23;3.17;;;9.70;93.40;;;;;;5016723;28;20034;-82
2023/03/03 11:21:33;;;;;;;5.60;3.08;;;9.90;92.70;;;;;;5029828;28;20478;-85
2023/03/03 11:24:19;;;;;;;5.32;2.85;;;10.10;92.90;;;;;;5013443;28;20037;-86
2023/03/03 11:26:52;;;;;;;3.38;1.77;;;10.10;91.80;;;;;;5006435;28;20437;-82
2023/03/03 11:29:33;;;;;;;4.20;2.30;;;10.10;91.70;;;;;;5013211;28;20022;-81
2023/03/03 11:32:08;;;;;;;4.50;2.30;;;10.10;90.40;;;;;;5014786;28;20112;-82
2023/03/03 11:34:52;;;;;;;4.90;2.10;;;9.80;90.10;;;;;;5014932;28;20116;-82
2023/03/03 11:37:28;;;;;;;6.30;2.63;;;9.70;90.90;;;;;;5014918;28;20073;-80
2023/03/03 11:40:01;;;;;;;6.25;3.20;;;9.60;90.60;;;;;;5007554;28;20029;-80
2023/03/03 11:43:11;;;;;;;5.10;2.38;;;9.60;90.60;;;;;;5010042;28;20121;-78
2023/03/03 11:45:44;;;;;;;4.13;1.98;;;9.40;90.80;;;;;;4992390;28;20077;-82
2023/03/03 11:48:19;;;;;;;3.83;1.92;;;9.20;90.70;;;;;;4992303;28;20030;-79
2023/03/03 11:50:56;;;;;;;3.20;1.92;;;9.30;90.70;;;;;;5004701;28;20041;-79
2023/03/03 11:53:39;;;;;;;4.25;1.83;;;9.40;90.80;;;;;;5006351;28;20026;-79
2023/03/03 11:56:22;;;;;;;4.53;2.10;;;9.40;90.20;;;;;;5011726;28;20037;-80
2023/03/03 11:59:00;;;;;;;4.13;1.85;;;9.50;90.30;;;;;;5012209;28;20030;-80
2023/03/03 12:01:38;;;;;;;4.13;1.40;;;9.50;90.80;;;;;;5011493;28;20045;-79
2023/03/03 12:04:12;;;;;;;3.05;1.45;;;9.60;91.20;;;;;;5011514;28;20029;-80
2023/03/03 12:06:40;;;;;;;3.00;1.50;;;9.90;90.60;;;;;;5004915;28;20468;-77
2023/03/03 12:09:15;;;;;;;4.85;2.22;;;10.20;89.70;;;;;;5012012;28;20022;-78
2023/03/03 12:11:49;;;;;;;4.63;1.15;;;10.20;87.40;;;;;;5012151;28;20095;-79
2023/03/03 12:14:54;;;;;;;3.88;1.30;;;10.50;88.90;;;;;;5012610;28;20041;-78
2023/03/03 12:17:23;;;;;;;3.53;1.40;;;10.70;87.60;;;;;;5013736;28;20026;-78
2023/03/03 12:19:55;;;;;;;1.83;0.85;;;11.10;85.40;;;;;;5019541;28;20061;-78
2023/03/03 12:22:23;;;;;;;5.35;1.58;;;11.20;85.30;;;;;;5015801;28;20330;-79
2023/03/03 12:25:21;;;;;;;3.65;1.27;;;11.00;81.60;;;;;;5015591;28;20029;-77
2023/03/03 12:27:59;;;;;;;1.85;0.93;;;10.70;82.40;;;;;;5019287;28;20117;-78
2023/03/03 12:30:43;;;;;;;6.45;1.65;;;10.50;83.20;;;;;;4994971;28;20026;-81
2023/03/03 12:33:18;;;;;;;1.90;1.10;;;10.60;84.10;;;;;;4996119;28;20069;-77
2023/03/03 12:35:43;;;;;;;1.90;0.80;;;10.90;83.90;;;;;;4995783;28;20076;-77
2023/03/03 12:38:18;;;;;;;2.90;1.05;;;11.00;81.00;;;;;;4995983;28;20421;-78
2023/03/03 12:41:02;;;;;;;2.78;1.05;;;10.90;80.60;;;;;;5027811;28;20101;-79
2023/03/03 12:43:41;;;;;;;3.75;0.52;;;10.90;80.50;;;;;;5027702;28;20057;-80
2023/03/03 12:46:24;;;;;;;1.65;0.90;;;11.00;79.70;;;;;;5031791;28;20112;-83
2023/03/03 12:48:49;;;;;;;;;;;11.20;81.60;;;;;;5014460;28;20026;-82
2023/03/03 12:51:24;;;;;;;2.10;0.90;;;11.60;82.60;;;;;;5013943;28;19923;-82
2023/03/03 12:53:55;;;;;;;2.47;1.00;;;11.90;79.80;;;;;;5012964;28;20036;-83
2023/03/03 12:56:37;;;;;;;1.83;0.57;;;12.00;74.10;;;;;;5031103;28;20040;-82
2023/03/03 12:59:22;;;;;;;4.93;0.60;;;12.10;73.40;;;;;;5013130;28;20072;-80
2023/03/03 13:01:54;;;;;;;2.03;0.68;;;12.10;72.90;;;;;;5031254;28;20134;-80
2023/03/03 13:04:25;;;;;;;2.60;0.82;;;11.70;71.90;;;;;;5031232;28;20104;-81
2023/03/03 13:07:16;;;;;;;1.55;0.45;;;11.60;73.60;;;;;;5014655;28;20110;-80
2023/03/03 13:10:08;;;;;;;2.05;0.60;;;11.60;72.70;;;;;;5032113;28;20312;-77